createdAt,value
2023-08-13T00:01:32.494Z,100.00
2023-08-13T00:03:59.306Z,100.00
2023-08-13T00:06:26.260Z,100.00
2023-08-13T00:08:52.778Z,100.00
2023-08-13T00:11:19.366Z,100.00
2023-08-13T00:13:47.041Z,100.00
2023-08-13T00:16:37.815Z,100.00
2023-08-13T00:19:07.430Z,100.00
2023-08-13T00:21:33.972Z,100.00
2023-08-13T00:24:00.458Z,100.00
2023-08-13T00:26:26.972Z,100.00
2023-08-13T00:28:53.476Z,100.00
2023-08-13T00:31:23.451Z,100.00
2023-08-13T00:33:53.496Z,100.00
2023-08-13T00:36:20.042Z,100.00
2023-08-13T00:38:46.525Z,100.00
2023-08-13T00:41:13.211Z,100.00
2023-08-13T00:43:40.600Z,100.00
2023-08-13T00:46:11.495Z,100.00
2023-08-13T00:48:40.676Z,100.00
2023-08-13T00:51:09.675Z,100.00
2023-08-13T00:53:47.668Z,100.00
2023-08-13T00:56:17.634Z,100.00
2023-08-13T00:58:45.025Z,100.00
2023-08-13T01:01:15.149Z,100.00
2023-08-13T01:03:44.876Z,100.00
2023-08-13T01:06:14.337Z,100.00
2023-08-13T01:09:04.230Z,100.00
2023-08-13T01:11:47.073Z,100.00
2023-08-13T01:14:28.092Z,100.00
2023-08-13T01:17:00.264Z,100.00
2023-08-13T01:19:26.807Z,100.00
2023-08-13T01:21:53.380Z,100.00
2023-08-13T01:24:19.919Z,100.00
2023-08-13T01:27:02.692Z,100.00
2023-08-13T01:29:42.602Z,100.00
2023-08-13T01:32:16.377Z,100.00
2023-08-13T01:34:44.454Z,100.00
2023-08-13T01:37:12.131Z,100.00
2023-08-13T01:39:38.724Z,100.00
2023-08-13T01:42:07.469Z,100.00
2023-08-13T01:44:33.952Z,100.00
2023-08-13T01:47:00.482Z,100.00
2023-08-13T01:49:27.171Z,100.00
2023-08-13T01:51:53.671Z,100.00
2023-08-13T01:54:20.210Z,100.00
2023-08-13T01:56:46.721Z,100.00
2023-08-13T01:59:13.255Z,100.00
2023-08-13T02:01:39.798Z,100.00
2023-08-13T02:04:06.622Z,100.00
2023-08-13T02:06:34.409Z,100.00
2023-08-13T02:09:01.385Z,100.00
2023-08-13T02:11:27.997Z,100.00
2023-08-13T02:13:54.506Z,100.00
2023-08-13T02:16:21.006Z,100.00
2023-08-13T02:18:47.639Z,100.00
2023-08-13T02:21:14.351Z,100.00
2023-08-13T02:23:40.974Z,100.00
2023-08-13T02:26:07.447Z,100.00
2023-08-13T02:28:33.975Z,100.00
2023-08-13T02:31:00.515Z,100.00
2023-08-13T02:33:27.143Z,100.00
2023-08-13T02:35:53.673Z,100.00
2023-08-13T02:38:20.206Z,100.00
2023-08-13T02:40:46.789Z,100.00
2023-08-13T02:43:13.315Z,100.00
2023-08-13T02:45:39.801Z,100.00
2023-08-13T02:48:06.652Z,100.00
2023-08-13T02:50:33.198Z,100.00
2023-08-13T02:52:59.728Z,100.00
2023-08-13T02:55:26.261Z,100.00
2023-08-13T02:58:08.999Z,100.00
2023-08-13T03:00:36.441Z,100.00
2023-08-13T03:03:03.136Z,100.00
2023-08-13T03:05:31.697Z,100.00
2023-08-13T03:07:58.264Z,100.00
2023-08-13T03:10:24.950Z,100.00
2023-08-13T03:12:51.461Z,100.00
2023-08-13T03:15:17.974Z,100.00
2023-08-13T03:17:44.509Z,100.00
2023-08-13T03:20:11.228Z,100.00
2023-08-13T03:22:38.403Z,100.00
2023-08-13T03:25:05.535Z,100.00
2023-08-13T03:27:32.041Z,100.00
2023-08-13T03:29:58.545Z,100.00
2023-08-13T03:32:25.088Z,100.00
2023-08-13T03:34:51.600Z,100.00
2023-08-13T03:37:21.696Z,100.00
2023-08-13T03:39:48.182Z,100.00
2023-08-13T03:42:14.867Z,100.00
2023-08-13T03:44:42.595Z,100.00
2023-08-13T03:47:09.178Z,100.00
2023-08-13T03:49:36.310Z,100.00
2023-08-13T03:52:02.998Z,100.00
2023-08-13T03:54:29.790Z,100.00
2023-08-13T03:56:56.347Z,100.00
2023-08-13T03:59:25.874Z,100.00
2023-08-13T04:01:52.623Z,100.00
2023-08-13T04:04:19.509Z,100.00
2023-08-13T04:06:46.948Z,100.00
2023-08-13T04:09:13.435Z,100.00
2023-08-13T04:11:40.002Z,100.00
2023-08-13T04:14:06.482Z,100.00
2023-08-13T04:16:33.015Z,100.00
2023-08-13T04:18:59.531Z,100.00
2023-08-13T04:21:28.833Z,100.00
2023-08-13T04:23:59.815Z,100.00
2023-08-13T04:26:26.343Z,100.00
2023-08-13T04:28:53.177Z,100.00
2023-08-13T04:31:21.377Z,100.00
2023-08-13T04:33:49.444Z,100.00
2023-08-13T04:36:16.254Z,100.00
2023-08-13T04:38:42.928Z,100.00
2023-08-13T04:41:09.623Z,100.00
2023-08-13T04:43:36.180Z,100.00
2023-08-13T04:46:05.751Z,100.00
2023-08-13T04:48:50.383Z,100.00
2023-08-13T04:51:17.574Z,100.00
2023-08-13T04:53:44.532Z,100.00
2023-08-13T04:56:11.289Z,100.00
2023-08-13T04:58:38.183Z,100.00
2023-08-13T05:01:05.295Z,100.00
2023-08-13T05:03:32.881Z,100.00
2023-08-13T05:05:59.710Z,100.00
2023-08-13T05:08:26.288Z,100.00
2023-08-13T05:10:52.956Z,100.00
2023-08-13T05:13:19.522Z,100.00
2023-08-13T05:15:46.252Z,100.00
2023-08-13T05:18:12.838Z,100.00
2023-08-13T05:20:39.357Z,100.00
2023-08-13T05:23:05.957Z,100.00
2023-08-13T05:25:37.647Z,100.00
2023-08-13T05:28:04.394Z,100.00
2023-08-13T05:30:30.964Z,100.00
2023-08-13T05:32:57.692Z,100.00
2023-08-13T05:35:24.208Z,100.00
2023-08-13T05:37:50.710Z,100.00
2023-08-13T05:40:17.309Z,100.00
2023-08-13T05:42:43.774Z,100.00
2023-08-13T05:45:11.543Z,100.00
2023-08-13T05:47:38.135Z,100.00
2023-08-13T05:50:05.555Z,100.00
2023-08-13T05:52:32.087Z,100.00
2023-08-13T05:54:58.592Z,100.00
2023-08-13T05:57:25.143Z,100.00
2023-08-13T05:59:51.746Z,100.00
2023-08-13T06:02:18.234Z,100.00
2023-08-13T06:04:44.820Z,100.00
2023-08-13T06:07:11.321Z,100.00
2023-08-13T06:09:37.865Z,100.00
2023-08-13T06:12:04.659Z,100.00
2023-08-13T06:14:31.220Z,100.00
2023-08-13T06:17:08.310Z,100.00
2023-08-13T06:19:39.203Z,100.00
2023-08-13T06:22:05.663Z,100.00
2023-08-13T06:24:32.869Z,100.00
2023-08-13T06:26:59.389Z,100.00
2023-08-13T06:29:25.902Z,100.00
2023-08-13T06:31:52.533Z,100.00
2023-08-13T06:34:19.153Z,100.00
2023-08-13T06:36:45.682Z,100.00
2023-08-13T06:39:12.203Z,100.00
2023-08-13T06:41:39.025Z,100.00
2023-08-13T06:44:06.918Z,100.00
2023-08-13T06:46:33.562Z,100.00
2023-08-13T06:49:00.210Z,100.00
2023-08-13T06:51:26.769Z,100.00
2023-08-13T06:53:53.305Z,100.00
2023-08-13T06:56:19.819Z,100.00
2023-08-13T06:58:46.299Z,100.00
2023-08-13T07:01:12.803Z,100.00
2023-08-13T07:03:39.336Z,100.00
2023-08-13T07:06:05.872Z,100.00
2023-08-13T07:08:36.022Z,100.00
2023-08-13T07:11:02.610Z,100.00
2023-08-13T07:13:29.314Z,100.00
2023-08-13T07:15:55.911Z,100.00
2023-08-13T07:18:22.577Z,100.00
2023-08-13T07:20:49.190Z,100.00
2023-08-13T07:23:15.650Z,100.00
2023-08-13T07:25:42.264Z,100.00
2023-08-13T07:28:08.776Z,100.00
2023-08-13T07:30:35.867Z,100.00
2023-08-13T07:33:02.482Z,100.00
2023-08-13T07:35:29.356Z,100.00
2023-08-13T07:37:55.922Z,100.00
2023-08-13T07:40:22.595Z,100.00
2023-08-13T07:42:49.050Z,100.00
2023-08-13T07:45:15.776Z,100.00
2023-08-13T07:47:42.469Z,100.00
2023-08-13T07:50:09.737Z,100.00
2023-08-13T07:52:36.710Z,100.00
2023-08-13T07:55:04.528Z,100.00
2023-08-13T07:57:32.182Z,100.00
2023-08-13T07:59:59.213Z,100.00
2023-08-13T08:02:25.809Z,100.00
2023-08-13T08:04:52.325Z,100.00
2023-08-13T08:07:19.992Z,100.00
2023-08-13T08:09:46.725Z,100.00
2023-08-13T08:12:13.677Z,100.00
2023-08-13T08:14:40.428Z,100.00
2023-08-13T08:17:08.324Z,100.00
2023-08-13T08:19:34.936Z,100.00
2023-08-13T08:22:01.514Z,98.83
2023-08-13T08:24:28.039Z,98.52
2023-08-13T08:26:54.549Z,97.73
2023-08-13T08:29:21.198Z,94.50
2023-08-13T08:31:47.751Z,95.52
2023-08-13T08:34:14.258Z,94.06
2023-08-13T08:36:41.559Z,91.40
2023-08-13T08:39:08.162Z,85.39
2023-08-13T08:41:37.684Z,92.43
2023-08-13T08:44:07.549Z,96.88
2023-08-13T08:46:34.891Z,95.86
2023-08-13T08:49:01.453Z,90.74
2023-08-13T08:51:28.056Z,90.13
2023-08-13T08:53:54.769Z,92.38
2023-08-13T08:56:25.141Z,88.74
2023-08-13T08:58:51.653Z,88.24
2023-08-13T09:01:18.190Z,86.62
2023-08-13T09:03:44.697Z,86.22
2023-08-13T09:06:21.583Z,87.01
2023-08-13T09:08:50.167Z,90.07
2023-08-13T09:11:19.425Z,92.67
2023-08-13T09:13:50.721Z,91.48
2023-08-13T09:16:17.944Z,90.24
2023-08-13T09:18:44.614Z,90.21
2023-08-13T09:21:11.127Z,79.46
2023-08-13T09:23:40.950Z,78.57
2023-08-13T09:26:08.368Z,81.35
2023-08-13T09:28:35.422Z,80.38
2023-08-13T09:31:02.156Z,80.84
2023-08-13T09:33:28.761Z,76.71
2023-08-13T09:35:55.252Z,79.68
2023-08-13T09:38:21.861Z,78.14
2023-08-13T09:40:49.172Z,78.90
2023-08-13T09:43:20.604Z,80.07
2023-08-13T09:45:48.771Z,77.08
2023-08-13T09:48:19.877Z,76.25
2023-08-13T09:50:49.541Z,78.08
2023-08-13T09:53:16.824Z,78.26
2023-08-13T09:55:53.008Z,74.84
2023-08-13T09:58:20.505Z,72.71
2023-08-13T10:00:48.522Z,74.98
2023-08-13T10:03:18.451Z,76.40
2023-08-13T10:05:46.077Z,76.85
2023-08-13T10:08:19.443Z,77.33
2023-08-13T10:10:46.435Z,75.60
2023-08-13T10:13:13.238Z,75.22
2023-08-13T10:15:40.856Z,76.58
2023-08-13T10:18:07.699Z,74.58
2023-08-13T10:20:34.378Z,76.77
2023-08-13T10:23:02.663Z,76.18
2023-08-13T10:25:36.670Z,78.36
2023-08-13T10:28:21.226Z,75.88
2023-08-13T10:30:47.927Z,81.01
2023-08-13T10:33:15.572Z,78.78
2023-08-13T10:35:43.292Z,75.65
2023-08-13T10:38:12.374Z,77.99
2023-08-13T10:40:58.176Z,76.42
2023-08-13T10:43:24.768Z,75.90
2023-08-13T10:45:53.075Z,72.39
2023-08-13T10:48:27.882Z,72.94
2023-08-13T10:50:57.700Z,69.58
2023-08-13T10:53:27.203Z,72.71
2023-08-13T10:55:56.084Z,72.69
2023-08-13T10:58:25.151Z,71.32
2023-08-13T11:00:52.321Z,76.78
2023-08-13T11:03:25.227Z,73.20
2023-08-13T11:05:53.239Z,70.42
2023-08-13T11:08:30.724Z,70.46
2023-08-13T11:11:04.590Z,71.33
2023-08-13T11:13:31.102Z,72.85
2023-08-13T11:15:57.614Z,72.03
2023-08-13T11:18:24.141Z,71.64
2023-08-13T11:20:51.329Z,75.60
2023-08-13T11:23:19.105Z,73.55
2023-08-13T11:25:50.402Z,74.20
2023-08-13T11:28:20.684Z,75.66
2023-08-13T11:30:47.767Z,72.78
2023-08-13T11:33:15.934Z,73.26
2023-08-13T11:35:42.614Z,74.18
2023-08-13T11:38:09.722Z,76.96
2023-08-13T11:40:37.333Z,72.64
2023-08-13T11:43:07.089Z,73.74
2023-08-13T11:45:33.988Z,74.67
2023-08-13T11:48:21.669Z,73.54
2023-08-13T11:51:19.951Z,73.19
2023-08-13T11:53:49.044Z,77.12
2023-08-13T11:56:17.267Z,74.51
2023-08-13T11:58:44.927Z,73.95
2023-08-13T12:01:12.590Z,75.73
2023-08-13T12:03:44.341Z,73.07
2023-08-13T12:06:11.960Z,72.26
2023-08-13T12:08:39.034Z,72.31
2023-08-13T12:11:06.865Z,72.83
2023-08-13T12:13:41.348Z,73.94
2023-08-13T12:16:07.982Z,75.58
2023-08-13T12:18:34.541Z,74.15
2023-08-13T12:21:01.066Z,78.65
2023-08-13T12:23:27.587Z,76.18
2023-08-13T12:25:54.078Z,77.89
2023-08-13T12:28:20.734Z,79.39
2023-08-13T12:30:47.246Z,79.49
2023-08-13T12:33:13.856Z,73.43
2023-08-13T12:35:40.491Z,80.55
2023-08-13T12:38:06.966Z,84.15
2023-08-13T12:40:33.476Z,84.73
2023-08-13T12:42:59.977Z,77.30
2023-08-13T12:45:26.507Z,78.55
2023-08-13T12:47:53.036Z,79.33
2023-08-13T12:50:19.596Z,84.73
2023-08-13T12:52:46.100Z,84.99
2023-08-13T12:55:12.788Z,79.18
2023-08-13T12:57:39.393Z,79.11
2023-08-13T13:00:06.785Z,83.53
2023-08-13T13:02:33.440Z,89.26
2023-08-13T13:05:00.106Z,91.73
2023-08-13T13:07:29.539Z,95.37
2023-08-13T13:09:56.100Z,88.22
2023-08-13T13:12:23.694Z,89.28
2023-08-13T13:14:50.280Z,86.94
2023-08-13T13:17:16.909Z,82.98
2023-08-13T13:19:43.775Z,79.38
2023-08-13T13:22:14.235Z,78.08
2023-08-13T13:24:40.935Z,79.31
2023-08-13T13:27:07.456Z,80.64
2023-08-13T13:29:33.959Z,78.00
2023-08-13T13:32:01.400Z,76.06
2023-08-13T13:34:28.063Z,75.42
2023-08-13T13:36:55.436Z,78.79
2023-08-13T13:39:21.942Z,78.79
2023-08-13T13:41:51.974Z,77.43
2023-08-13T13:44:19.095Z,75.25
2023-08-13T13:46:45.617Z,76.18
2023-08-13T13:49:12.100Z,77.88
2023-08-13T13:51:38.605Z,74.98
2023-08-13T13:54:07.646Z,76.00
2023-08-13T13:56:34.310Z,73.64
2023-08-13T13:59:00.903Z,73.33
2023-08-13T14:01:27.440Z,73.47
2023-08-13T14:03:54.025Z,74.63
2023-08-13T14:06:20.775Z,70.66
2023-08-13T14:08:47.308Z,73.06
2023-08-13T14:11:13.894Z,73.53
2023-08-13T14:13:40.360Z,74.54
2023-08-13T14:16:06.993Z,75.76
2023-08-13T14:18:33.522Z,72.58
2023-08-13T14:21:00.062Z,73.99
2023-08-13T14:23:26.562Z,75.33
2023-08-13T14:25:54.240Z,74.79
2023-08-13T14:28:20.740Z,74.55
2023-08-13T14:30:47.257Z,74.57
2023-08-13T14:33:13.884Z,75.45
2023-08-13T14:35:40.492Z,81.85
2023-08-13T14:38:07.058Z,81.46
2023-08-13T14:40:33.568Z,76.81
2023-08-13T14:43:00.095Z,76.22
2023-08-13T14:45:26.623Z,74.80
2023-08-13T14:47:53.243Z,75.77
2023-08-13T14:50:20.726Z,79.15
2023-08-13T14:52:47.269Z,77.42
2023-08-13T14:55:16.591Z,76.65
2023-08-13T14:57:43.421Z,79.39
2023-08-13T15:00:10.176Z,78.93
2023-08-13T15:02:37.248Z,80.84
2023-08-13T15:05:04.264Z,80.28
2023-08-13T15:07:30.759Z,79.97
2023-08-13T15:09:57.397Z,77.85
2023-08-13T15:12:39.340Z,81.21
2023-08-13T15:15:08.397Z,81.91
2023-08-13T15:17:38.251Z,84.01
2023-08-13T15:20:08.864Z,78.18
2023-08-13T15:22:36.047Z,78.08
2023-08-13T15:25:04.079Z,78.50
2023-08-13T15:27:31.085Z,78.77
2023-08-13T15:29:57.735Z,80.91
2023-08-13T15:32:24.306Z,78.90
2023-08-13T15:34:50.802Z,79.41
2023-08-13T15:37:17.314Z,78.22
2023-08-13T15:39:46.235Z,78.99
2023-08-13T15:42:12.806Z,80.03
2023-08-13T15:44:39.768Z,80.32
2023-08-13T15:47:06.471Z,79.05
2023-08-13T15:49:33.038Z,79.81
2023-08-13T15:52:00.372Z,79.38
2023-08-13T15:54:26.936Z,81.18
2023-08-13T15:56:53.409Z,81.84
2023-08-13T15:59:19.922Z,81.50
2023-08-13T16:01:48.014Z,81.38
2023-08-13T16:04:14.960Z,81.46
2023-08-13T16:06:42.699Z,83.62
2023-08-13T16:09:09.262Z,83.00
2023-08-13T16:11:36.126Z,82.45
2023-08-13T16:14:02.648Z,82.61
2023-08-13T16:16:29.221Z,83.62
2023-08-13T16:18:55.827Z,83.75
2023-08-13T16:21:22.945Z,82.55
2023-08-13T16:23:57.537Z,82.03
2023-08-13T16:26:27.676Z,81.81
2023-08-13T16:28:54.182Z,81.80
2023-08-13T16:31:20.711Z,82.89
2023-08-13T16:33:47.358Z,83.44
2023-08-13T16:36:13.857Z,83.65
2023-08-13T16:38:40.411Z,84.51
2023-08-13T16:41:06.883Z,84.15
2023-08-13T16:43:33.479Z,85.90
2023-08-13T16:45:59.989Z,83.84
2023-08-13T16:48:26.583Z,83.58
2023-08-13T16:50:53.134Z,85.75
2023-08-13T16:53:19.707Z,84.68
2023-08-13T16:55:46.306Z,85.56
2023-08-13T16:58:12.968Z,85.54
2023-08-13T17:00:40.505Z,83.89
2023-08-13T17:03:07.058Z,83.61
2023-08-13T17:05:33.583Z,85.68
2023-08-13T17:08:00.053Z,86.88
2023-08-13T17:10:26.604Z,84.31
2023-08-13T17:12:53.132Z,81.96
2023-08-13T17:15:24.981Z,82.51
2023-08-13T17:17:56.282Z,82.36
2023-08-13T17:20:23.438Z,80.67
2023-08-13T17:22:50.445Z,80.47
2023-08-13T17:25:17.075Z,79.74
2023-08-13T17:27:43.646Z,81.05
2023-08-13T17:30:10.542Z,79.91
2023-08-13T17:32:37.072Z,79.57
2023-08-13T17:35:04.617Z,79.09
2023-08-13T17:37:32.962Z,78.53
2023-08-13T17:40:00.961Z,78.85
2023-08-13T17:42:27.482Z,78.25
2023-08-13T17:44:56.751Z,78.21
2023-08-13T17:47:23.395Z,77.68
2023-08-13T17:49:50.837Z,77.04
2023-08-13T17:52:17.373Z,78.22
2023-08-13T17:54:43.883Z,77.72
2023-08-13T17:57:10.405Z,77.00
2023-08-13T17:59:37.452Z,77.13
2023-08-13T18:02:04.063Z,77.63
2023-08-13T18:04:30.730Z,77.67
2023-08-13T18:07:00.654Z,79.09
2023-08-13T18:09:27.286Z,79.60
2023-08-13T18:11:53.860Z,81.53
2023-08-13T18:14:20.798Z,81.06
2023-08-13T18:16:47.338Z,81.73
2023-08-13T18:19:14.219Z,83.30
2023-08-13T18:21:43.634Z,81.66
2023-08-13T18:24:10.097Z,83.93
2023-08-13T18:26:36.682Z,86.38
2023-08-13T18:29:04.441Z,88.33
2023-08-13T18:31:31.110Z,91.65
2023-08-13T18:33:57.639Z,92.49
2023-08-13T18:36:24.219Z,93.02
2023-08-13T18:38:50.720Z,95.28
2023-08-13T18:41:17.253Z,94.97
2023-08-13T18:43:43.880Z,93.99
2023-08-13T18:46:11.418Z,93.34
2023-08-13T18:48:38.294Z,95.29
2023-08-13T18:51:04.909Z,96.11
2023-08-13T18:53:31.433Z,96.92
2023-08-13T18:55:58.220Z,97.42
2023-08-13T18:58:24.776Z,99.16
2023-08-13T19:00:51.525Z,100.00
2023-08-13T19:03:18.449Z,100.00
2023-08-13T19:05:46.016Z,99.12
2023-08-13T19:08:12.827Z,98.57
2023-08-13T19:10:46.242Z,97.88
2023-08-13T19:13:14.373Z,97.42
2023-08-13T19:15:41.410Z,97.59
2023-08-13T19:18:10.218Z,97.88
2023-08-13T19:20:36.876Z,98.31
2023-08-13T19:23:03.667Z,98.51
2023-08-13T19:25:30.618Z,99.35
2023-08-13T19:27:57.413Z,100.00
2023-08-13T19:30:24.006Z,100.00
2023-08-13T19:32:50.784Z,100.00
2023-08-13T19:35:17.573Z,100.00
2023-08-13T19:37:44.127Z,100.00
2023-08-13T19:40:12.098Z,100.00
2023-08-13T19:42:38.782Z,100.00
2023-08-13T19:45:05.801Z,100.00
2023-08-13T19:47:32.512Z,100.00
2023-08-13T19:49:59.116Z,100.00
2023-08-13T19:52:25.753Z,100.00
2023-08-13T19:54:52.333Z,100.00
2023-08-13T19:57:18.947Z,100.00
2023-08-13T19:59:45.455Z,100.00
2023-08-13T20:02:11.988Z,100.00
2023-08-13T20:04:38.557Z,100.00
2023-08-13T20:07:05.167Z,100.00
2023-08-13T20:09:31.811Z,100.00
2023-08-13T20:11:58.483Z,100.00
2023-08-13T20:14:24.975Z,100.00
2023-08-13T20:16:51.514Z,100.00
2023-08-13T20:19:18.903Z,100.00
2023-08-13T20:21:50.296Z,100.00
2023-08-13T20:24:18.374Z,100.00
2023-08-13T20:26:45.665Z,100.00
2023-08-13T20:29:15.326Z,100.00
2023-08-13T20:31:43.221Z,100.00
2023-08-13T20:34:09.940Z,100.00
2023-08-13T20:36:36.495Z,100.00
2023-08-13T20:39:03.106Z,100.00
2023-08-13T20:41:30.895Z,100.00
2023-08-13T20:43:57.472Z,100.00
2023-08-13T20:46:23.994Z,100.00
2023-08-13T20:48:50.537Z,100.00
2023-08-13T20:51:19.821Z,100.00
2023-08-13T20:53:46.333Z,100.00
2023-08-13T20:56:12.945Z,100.00
2023-08-13T20:58:43.008Z,100.00
2023-08-13T21:01:09.493Z,100.00
2023-08-13T21:03:36.074Z,100.00
2023-08-13T21:06:02.591Z,100.00
2023-08-13T21:08:29.081Z,100.00
2023-08-13T21:10:55.612Z,100.00
2023-08-13T21:13:22.150Z,100.00
2023-08-13T21:15:48.705Z,100.00
2023-08-13T21:18:15.306Z,100.00
2023-08-13T21:20:41.851Z,100.00
2023-08-13T21:23:08.407Z,100.00
2023-08-13T21:25:34.950Z,100.00
2023-08-13T21:28:01.561Z,100.00
2023-08-13T21:30:28.064Z,100.00
2023-08-13T21:32:55.986Z,100.00
2023-08-13T21:35:24.100Z,100.00
2023-08-13T21:37:50.673Z,100.00
2023-08-13T21:40:17.531Z,100.00
2023-08-13T21:42:44.152Z,100.00
2023-08-13T21:45:11.498Z,100.00
2023-08-13T21:47:39.111Z,100.00
2023-08-13T21:50:06.221Z,100.00
2023-08-13T21:52:32.727Z,100.00
2023-08-13T21:54:59.269Z,100.00
2023-08-13T21:57:25.763Z,100.00
2023-08-13T21:59:52.319Z,100.00
2023-08-13T22:02:19.100Z,100.00
2023-08-13T22:04:45.753Z,100.00
2023-08-13T22:07:12.419Z,100.00
2023-08-13T22:09:38.938Z,100.00
2023-08-13T22:12:09.041Z,100.00
2023-08-13T22:14:35.667Z,100.00
2023-08-13T22:17:02.187Z,100.00
2023-08-13T22:19:51.563Z,100.00
2023-08-13T22:22:19.838Z,100.00
2023-08-13T22:24:47.456Z,100.00
2023-08-13T22:27:14.139Z,100.00
2023-08-13T22:29:41.031Z,100.00
2023-08-13T22:32:07.832Z,100.00
2023-08-13T22:34:34.528Z,100.00
2023-08-13T22:37:01.079Z,100.00
2023-08-13T22:39:30.686Z,100.00
2023-08-13T22:41:58.156Z,100.00
2023-08-13T22:44:24.864Z,100.00
2023-08-13T22:46:53.871Z,100.00
2023-08-13T22:49:31.247Z,100.00
2023-08-13T22:51:58.037Z,100.00
2023-08-13T22:54:24.724Z,100.00
2023-08-13T22:56:51.261Z,100.00
2023-08-13T22:59:17.759Z,100.00
2023-08-13T23:01:49.785Z,100.00
2023-08-13T23:04:16.352Z,100.00
2023-08-13T23:06:42.918Z,100.00
2023-08-13T23:09:09.924Z,100.00
2023-08-13T23:11:36.555Z,100.00
2023-08-13T23:14:03.144Z,100.00
2023-08-13T23:16:32.115Z,100.00
2023-08-13T23:18:58.601Z,100.00
2023-08-13T23:21:31.568Z,100.00
2023-08-13T23:23:59.790Z,100.00
2023-08-13T23:26:26.477Z,100.00
2023-08-13T23:28:53.036Z,100.00
2023-08-13T23:31:19.679Z,100.00
2023-08-13T23:33:48.915Z,100.00
2023-08-13T23:36:17.016Z,100.00
2023-08-13T23:38:44.211Z,100.00
2023-08-13T23:41:10.835Z,100.00
2023-08-13T23:43:37.759Z,100.00
2023-08-13T23:46:06.920Z,100.00
2023-08-13T23:48:39.531Z,100.00
2023-08-13T23:51:07.018Z,100.00
2023-08-13T23:53:33.911Z,100.00
2023-08-13T23:56:02.725Z,100.00
2023-08-13T23:58:29.251Z,100.00
